Time;durP1;ratioP1;P1;durP2;ratioP2;P2;SDS_P1;SDS_P2;PMS_P1;PMS_P2;Temp;Humidity;BMP_temperature;BMP_pressure;BME280_temperature;BME280_humidity;BME280_pressure;Samples;Min_cycle;Max_cycle;Signal;HPM_P1;HPM_P2
2021/11/23 00:00:44;;;;;;;3.40;1.70;;;;;;;1.54;71.33;99177.91;101811;1319;61313;-24
2021/11/23 00:03:12;;;;;;;2.80;1.60;;;;;;;1.53;71.58;99177.94;101833;1319;61241;-23
2021/11/23 00:05:41;;;;;;;4.10;2.40;;;;;;;1.23;72.07;99180.18;101829;1319;73808;-24
2021/11/23 00:08:09;;;;;;;5.00;2.50;;;;;;;1.08;72.73;99181.49;102157;1317;73044;-24
2021/11/23 00:10:40;;;;;;;7.50;2.60;;;;;;;1.01;73.17;99181.94;101785;1319;72538;-24
2021/11/23 00:13:11;;;;;;;5.70;2.40;;;;;;;0.85;73.70;99185.16;101750;1322;61217;-24
2021/11/23 00:15:38;;;;;;;6.80;2.20;;;;;;;0.80;74.07;99189.94;101729;1316;62273;-24
2021/11/23 00:18:08;;;;;;;2.70;1.10;;;;;;;1.07;73.38;99189.39;101839;1316;75194;-23
2021/11/23 00:20:35;;;;;;;4.30;2.10;;;;;;;1.70;71.03;99191.61;101809;1319;76112;-24
2021/11/23 00:23:04;;;;;;;2.80;1.30;;;;;;;1.84;70.37;99192.21;101728;1319;72843;-24
2021/11/23 00:25:32;;;;;;;3.10;1.70;;;;;;;1.76;70.22;99194.09;102004;1319;61184;-23
2021/11/23 00:27:59;;;;;;;4.90;1.50;;;;;;;1.64;70.42;99191.36;101708;1316;61919;-23
2021/11/23 00:30:27;;;;;;;3.80;1.90;;;;;;;1.54;70.76;99193.64;101980;1313;74614;-24
2021/11/23 00:32:56;;;;;;;7.00;3.30;;;;;;;1.40;70.98;99192.86;101960;1316;76130;-24
2021/11/23 00:35:26;;;;;;;6.60;3.00;;;;;;;0.98;72.01;99199.66;101732;1319;74596;-23
2021/11/23 00:37:53;;;;;;;5.50;2.70;;;;;;;0.62;73.79;99203.26;101904;1316;61096;-24
2021/11/23 00:40:22;;;;;;;4.60;1.80;;;;;;;0.46;74.56;99203.51;101926;1315;61247;-24
2021/11/23 00:42:49;;;;;;;2.30;1.10;;;;;;;0.51;74.51;99206.58;101831;1315;75201;-24
2021/11/23 00:45:17;;;;;;;3.30;1.70;;;;;;;1.06;73.12;99213.53;101998;1314;76189;-24
2021/11/23 00:47:44;;;;;;;4.50;1.90;;;;;;;1.26;72.16;99217.21;101595;1316;74508;-24
2021/11/23 00:50:12;;;;;;;5.80;2.50;;;;;;;1.27;72.35;99218.89;102047;1314;61232;-24
2021/11/23 00:52:40;;;;;;;6.20;3.10;;;;;;;1.16;72.60;99218.96;101761;1317;61894;-24
2021/11/23 00:55:08;;;;;;;6.30;2.30;;;;;;;0.95;73.56;99223.52;101834;1317;74565;-24
2021/11/23 00:57:35;;;;;;;7.50;3.10;;;;;;;0.90;73.90;99219.63;101911;1315;76036;-23
2021/11/23 01:00:04;;;;;;;6.80;2.70;;;;;;;0.74;74.63;99214.59;102240;1316;74554;-23
2021/11/23 01:02:31;;;;;;;10.30;3.90;;;;;;;0.57;75.40;99216.60;101953;1316;61221;-24
2021/11/23 01:04:58;;;;;;;5.70;2.30;;;;;;;0.34;76.41;99221.52;101754;1316;61815;-24
2021/11/23 01:07:25;;;;;;;8.00;3.00;;;;;;;0.86;74.89;99218.92;101966;1319;73720;-24
2021/11/23 01:09:52;;;;;;;6.30;2.50;;;;;;;1.39;72.61;99222.13;102018;1314;76104;-24
2021/11/23 01:12:19;;;;;;;8.10;3.10;;;;;;;1.47;71.56;99218.40;101603;1315;72919;-24
2021/11/23 01:14:46;;;;;;;4.90;2.90;;;;;;;1.20;72.00;99219.64;101886;1316;61361;-24
2021/11/23 01:17:14;;;;;;;11.50;4.00;;;;;;;0.95;72.46;99224.76;101974;1316;61090;-24
2021/11/23 01:19:43;;;;;;;8.30;3.70;;;;;;;0.60;73.66;99225.54;101948;1319;74528;-23
2021/11/23 01:22:11;;;;;;;9.70;3.30;;;;;;;0.47;74.17;99227.21;101568;1319;74512;-24
2021/11/23 01:24:39;;;;;;;5.20;2.80;;;;;;;0.32;74.39;99226.40;101889;1319;73049;-24
2021/11/23 01:27:06;;;;;;;7.20;2.30;;;;;;;0.28;74.70;99228.96;101564;1316;61325;-23
2021/11/23 01:29:35;;;;;;;4.30;2.20;;;;;;;0.66;74.04;99230.25;101881;1316;61273;-23
2021/11/23 01:32:03;;;;;;;6.30;2.10;;;;;;;1.28;71.53;99229.60;101763;1319;75600;-24
2021/11/23 01:34:31;;;;;;;5.40;1.90;;;;;;;1.33;70.68;99223.41;101709;1319;76055;-25
2021/11/23 01:36:58;;;;;;;4.60;2.70;;;;;;;1.09;71.19;99224.02;101692;1317;73350;-24
2021/11/23 01:39:26;;;;;;;9.30;3.30;;;;;;;0.61;72.82;99221.05;101619;1316;61193;-23
2021/11/23 01:41:53;;;;;;;5.40;1.90;;;;;;;0.34;73.96;99221.91;101934;1316;61189;-24
2021/11/23 01:44:21;;;;;;;2.70;1.80;;;;;;;0.07;74.54;99220.45;102004;1316;73631;-24
2021/11/23 01:46:48;;;;;;;6.30;2.10;;;;;;;-0.12;74.98;99218.23;101960;1316;75976;-24
2021/11/23 01:49:15;;;;;;;3.70;2.00;;;;;;;-0.27;75.53;99218.91;101994;1319;73433;-24
2021/11/23 01:51:42;;;;;;;1.40;1.10;;;;;;;-0.43;76.33;99218.42;102204;1319;61876;-23
2021/11/23 01:54:09;;;;;;;3.50;1.40;;;;;;;-0.01;74.83;99224.65;102235;1320;61128;-23
2021/11/23 01:56:36;;;;;;;3.20;2.00;;;;;;;0.47;72.90;99225.17;102182;1316;75462;-24
2021/11/23 01:59:03;;;;;;;2.60;1.50;;;;;;;0.53;72.49;99221.19;101877;1316;76527;-24
2021/11/23 02:01:31;;;;;;;3.90;1.80;;;;;;;0.38;72.08;99218.14;102184;1318;74212;-23
2021/11/23 02:03:58;;;;;;;2.50;1.00;;;;;;;-0.00;72.98;99219.54;102242;1316;61116;-24
2021/11/23 02:06:26;;;;;;;3.60;1.30;;;;;;;-0.37;74.75;99220.61;101873;1315;61259;-24
2021/11/23 02:08:53;;;;;;;2.80;1.40;;;;;;;-0.56;75.17;99219.70;101756;1320;74777;-24
2021/11/23 02:11:21;;;;;;;3.10;1.40;;;;;;;-0.68;75.42;99219.23;102052;1316;75934;-24
2021/11/23 02:13:48;;;;;;;1.70;1.20;;;;;;;-0.81;75.20;99219.78;102045;1319;74372;-23
2021/11/23 02:16:16;;;;;;;1.60;1.10;;;;;;;-0.96;75.65;99218.08;102199;1316;61091;-24
2021/11/23 02:18:43;;;;;;;1.00;0.70;;;;;;;-1.11;75.75;99216.82;102233;1314;61838;-24
2021/11/23 02:21:10;;;;;;;1.90;0.70;;;;;;;-0.63;75.10;99217.52;102102;1316;75554;-23
2021/11/23 02:23:37;;;;;;;2.10;0.80;;;;;;;0.09;73.51;99219.70;102223;1316;76017;-24
2021/11/23 02:26:05;;;;;;;1.50;0.90;;;;;;;0.25;72.68;99217.79;102238;1316;74316;-24
2021/11/23 02:28:32;;;;;;;1.80;1.20;;;;;;;0.05;72.74;99222.40;102276;1319;61234;-25
2021/11/23 02:30:59;;;;;;;4.80;1.30;;;;;;;-0.54;74.35;99237.19;101781;1319;61161;-25
2021/11/23 02:33:27;;;;;;;1.70;1.10;;;;;;;-1.00;76.51;99241.73;101927;1316;75640;-25
2021/11/23 02:35:57;;;;;;;1.10;0.80;;;;;;;-1.10;75.21;99223.12;101789;1316;76096;-25
2021/11/23 02:38:25;;;;;;;1.20;1.10;;;;;;;-1.30;75.31;99218.26;101391;1316;74431;-26
2021/11/23 02:40:53;;;;;;;2.20;1.00;;;;;;;-1.49;77.00;99224.75;101614;1316;62072;-25
2021/11/23 02:43:21;;;;;;;2.20;0.90;;;;;;;-1.70;78.84;99233.02;101697;1320;61875;-25
2021/11/23 02:45:48;;;;;;;1.90;1.20;;;;;;;-1.31;78.11;99235.48;101888;1317;74624;-23
2021/11/23 02:48:16;;;;;;;1.20;0.90;;;;;;;-0.56;75.92;99234.35;102292;1316;74435;-25
2021/11/23 02:50:44;;;;;;;5.30;1.00;;;;;;;-0.37;74.51;99236.13;101891;1319;74602;-26
2021/11/23 02:53:11;;;;;;;1.90;1.10;;;;;;;-0.52;74.17;99234.58;102018;1316;61183;-23
2021/11/23 02:55:39;;;;;;;0.70;0.60;;;;;;;-0.75;74.48;99230.88;101641;1316;61148;-23
2021/11/23 02:58:06;;;;;;;0.80;0.60;;;;;;;-1.01;74.37;99226.58;101952;1316;74578;-23
2021/11/23 03:00:34;;;;;;;0.60;0.60;;;;;;;-1.30;75.17;99221.33;101752;1316;76029;-24
2021/11/23 03:03:01;;;;;;;1.00;0.80;;;;;;;-1.54;75.66;99215.55;101665;1316;74408;-23
2021/11/23 03:05:28;;;;;;;1.30;0.90;;;;;;;-1.73;76.57;99215.57;101836;1320;61202;-23
2021/11/23 03:08:01;;;;;;;1.40;0.80;;;;;;;-1.86;78.92;99222.06;101952;1314;61219;-23
2021/11/23 03:10:30;;;;;;;3.90;0.90;;;;;;;-1.28;78.43;99219.04;102044;1314;75612;-23
2021/11/23 03:12:58;;;;;;;1.20;1.00;;;;;;;-0.50;76.15;99222.06;101657;1317;76002;-23
2021/11/23 03:15:41;;;;;;;1.00;0.80;;;;;;;-0.35;75.14;99215.24;101594;1315;72554;-23
2021/11/23 03:18:10;;;;;;;1.90;1.10;;;;;;;-0.56;75.23;99215.63;101856;1316;61198;-24
2021/11/23 03:20:38;;;;;;;4.40;1.30;;;;;;;-0.84;75.70;99220.92;101618;1315;61326;-24
2021/11/23 03:23:06;;;;;;;1.30;1.00;;;;;;;-1.13;75.86;99219.09;101729;1317;75725;-23
2021/11/23 03:25:53;;;;;;;1.20;1.00;;;;;;;-1.37;76.53;99214.88;101531;1325;73213;-23
2021/11/23 03:28:20;;;;;;;1.50;0.90;;;;;;;-1.55;76.42;99206.71;101590;1319;74677;-23
2021/11/23 03:30:47;;;;;;;2.00;1.10;;;;;;;-1.72;77.85;99214.70;101541;1319;61199;-23
2021/11/23 03:33:14;;;;;;;1.90;1.30;;;;;;;-1.90;79.21;99219.80;101440;1318;61993;-23
2021/11/23 03:35:43;;;;;;;1.70;1.30;;;;;;;-1.59;79.25;99225.91;101543;1324;74588;-23
2021/11/23 03:38:11;;;;;;;1.60;1.00;;;;;;;-0.88;77.45;99215.09;101432;1321;76008;-23
2021/11/23 03:40:39;;;;;;;1.30;0.90;;;;;;;-0.71;76.11;99201.93;101129;1325;74483;-24
2021/11/23 03:43:12;;;;;;;;;;;;;;;-0.86;76.40;99197.11;101167;1319;61267;-23
2021/11/23 03:45:39;;;;;;;1.80;0.90;;;;;;;-1.07;76.53;99194.36;101980;1313;61359;-23
2021/11/23 03:48:07;;;;;;;1.60;1.00;;;;;;;-1.32;76.49;99193.42;102015;1316;75796;-23
2021/11/23 03:50:34;;;;;;;1.90;1.10;;;;;;;-1.59;77.44;99183.66;101876;1316;75090;-23
2021/11/23 03:53:02;;;;;;;1.50;1.20;;;;;;;-1.82;78.58;99187.05;101832;1314;74535;-23
2021/11/23 03:55:32;;;;;;;0.90;0.80;;;;;;;-1.99;77.85;99185.48;101618;1317;61227;-25
2021/11/23 03:58:01;;;;;;;1.00;0.70;;;;;;;-1.60;77.22;99182.84;101896;1314;61206;-23
2021/11/23 04:00:31;;;;;;;1.20;1.10;;;;;;;-1.04;75.81;99178.78;101678;1316;73500;-23
2021/11/23 04:02:59;;;;;;;5.60;1.40;;;;;;;-1.06;75.05;99174.39;101637;1316;75147;-23
2021/11/23 04:05:26;;;;;;;1.40;0.90;;;;;;;-1.33;76.11;99174.90;101842;1315;71600;-23
2021/11/23 04:07:54;;;;;;;1.40;1.10;;;;;;;-1.58;77.55;99179.89;101930;1315;61237;-23
2021/11/23 04:10:22;;;;;;;2.50;1.40;;;;;;;-2.15;78.31;99187.44;102207;1316;61228;-23
2021/11/23 04:12:51;;;;;;;1.60;1.00;;;;;;;-2.78;81.38;99192.62;102131;1319;73427;-23
2021/11/23 04:15:19;;;;;;;1.60;1.30;;;;;;;-2.98;80.89;99194.98;101910;1319;75110;-23
2021/11/23 04:17:48;;;;;;;3.10;1.20;;;;;;;-3.14;81.72;99201.27;101896;1316;73505;-23
2021/11/23 04:20:15;;;;;;;2.80;1.90;;;;;;;-2.83;81.42;99210.09;101947;1319;61961;-23
2021/11/23 04:22:43;;;;;;;2.40;1.70;;;;;;;-2.34;80.98;99216.01;101965;1316;61249;-23
2021/11/23 04:25:11;;;;;;;1.90;1.40;;;;;;;-2.31;80.01;99226.98;101613;1316;75375;-23
2021/11/23 04:27:39;;;;;;;3.00;1.90;;;;;;;-2.63;82.21;99229.14;101893;1316;74741;-23
2021/11/23 04:30:09;;;;;;;3.40;2.20;;;;;;;-2.76;83.94;99228.27;102223;1320;74205;-23
2021/11/23 04:32:35;;;;;;;3.20;1.40;;;;;;;-2.74;84.02;99232.31;101959;1316;61220;-24
2021/11/23 04:35:05;;;;;;;3.30;1.80;;;;;;;-2.81;83.84;99231.95;101806;1319;61183;-23
2021/11/23 04:37:32;;;;;;;5.90;1.20;;;;;;;-2.43;82.91;99233.40;101714;1316;75736;-23
2021/11/23 04:39:59;;;;;;;2.40;1.50;;;;;;;-1.65;80.12;99233.23;101882;1316;75181;-23
2021/11/23 04:42:26;;;;;;;2.10;1.60;;;;;;;-1.44;78.36;99239.79;101821;1319;74267;-23
2021/11/23 04:44:53;;;;;;;3.40;1.50;;;;;;;-1.49;77.85;99237.87;101817;1319;62277;-23
2021/11/23 04:47:21;;;;;;;2.40;1.60;;;;;;;-1.65;78.15;99237.65;101892;1316;61031;-23
2021/11/23 04:49:48;;;;;;;2.90;1.30;;;;;;;-1.87;78.13;99235.88;101555;1315;74343;-23
2021/11/23 04:52:15;;;;;;;1.30;1.10;;;;;;;-2.11;78.14;99235.48;101620;1320;76437;-23
2021/11/23 04:54:42;;;;;;;2.00;1.30;;;;;;;-2.35;79.09;99239.16;101885;1316;74568;-23
2021/11/23 04:57:09;;;;;;;1.50;1.20;;;;;;;-2.53;79.51;99235.02;101492;1316;61091;-23
2021/11/23 04:59:36;;;;;;;1.10;0.90;;;;;;;-2.13;79.62;99237.06;101932;1314;61820;-23
2021/11/23 05:02:03;;;;;;;3.40;1.70;;;;;;;-1.31;77.28;99235.81;101910;1320;75765;-23
2021/11/23 05:04:32;;;;;;;1.80;1.40;;;;;;;-1.01;75.71;99238.17;101758;1319;76083;-24
2021/11/23 05:06:59;;;;;;;2.00;1.50;;;;;;;-1.16;74.93;99236.38;101604;1319;227807;-23
2021/11/23 05:09:27;;;;;;;3.00;1.40;;;;;;;-1.41;75.50;99237.80;101682;1316;61242;-23
2021/11/23 05:11:54;;;;;;;2.50;1.50;;;;;;;-1.73;76.49;99237.55;101941;1314;62113;-23
2021/11/23 05:14:22;;;;;;;2.00;1.30;;;;;;;-1.95;77.44;99235.40;101814;1316;75521;-23
2021/11/23 05:16:52;;;;;;;2.50;1.30;;;;;;;-2.12;78.07;99237.55;101793;1316;76123;-24
2021/11/23 05:19:19;;;;;;;3.50;1.50;;;;;;;-2.28;78.76;99235.59;101912;1320;74228;-24
2021/11/23 05:21:47;;;;;;;2.50;1.10;;;;;;;-2.39;79.25;99229.90;101848;1314;61170;-23
2021/11/23 05:24:15;;;;;;;4.20;2.10;;;;;;;-1.88;79.16;99233.52;101919;1316;61227;-23
2021/11/23 05:26:42;;;;;;;6.70;1.50;;;;;;;-1.12;76.38;99236.63;102182;1314;75595;-24
2021/11/23 05:29:10;;;;;;;3.20;1.50;;;;;;;-0.93;75.13;99236.73;101735;1316;76027;-23
2021/11/23 05:31:38;;;;;;;4.80;1.40;;;;;;;-1.07;75.02;99239.02;101629;1316;73407;-23
2021/11/23 05:34:05;;;;;;;2.30;1.30;;;;;;;-1.32;75.73;99239.77;101770;1320;61127;-23
2021/11/23 05:36:36;;;;;;;1.70;1.20;;;;;;;-1.56;76.64;99244.55;101689;1316;61777;-24
2021/11/23 05:39:04;;;;;;;5.20;1.40;;;;;;;-1.75;77.43;99244.23;101777;1319;75101;-24
2021/11/23 05:41:32;;;;;;;3.50;1.40;;;;;;;-1.92;78.08;99255.05;101754;1319;76080;-24
2021/11/23 05:43:59;;;;;;;1.80;1.40;;;;;;;-2.06;78.69;99255.92;101540;1316;72422;-24
2021/11/23 05:46:27;;;;;;;2.80;1.80;;;;;;;-2.15;79.21;99261.27;101576;1316;61877;-24
2021/11/23 05:48:55;;;;;;;1.80;1.30;;;;;;;-1.62;78.85;99265.46;101683;1320;61247;-24
2021/11/23 05:51:23;;;;;;;2.20;1.60;;;;;;;-0.83;76.42;99263.54;101605;1317;75878;-24
2021/11/23 05:53:50;;;;;;;3.30;2.00;;;;;;;-0.65;75.15;99268.23;101770;1316;76051;-24
2021/11/23 05:56:17;;;;;;;4.00;1.80;;;;;;;-0.76;74.99;99271.15;101542;1315;72154;-24
2021/11/23 05:58:44;;;;;;;2.10;1.30;;;;;;;-0.99;75.54;99271.67;101520;1320;61237;-23
2021/11/23 06:01:11;;;;;;;4.60;2.10;;;;;;;-1.19;76.23;99278.56;101825;1319;61084;-24
2021/11/23 06:03:38;;;;;;;11.20;2.10;;;;;;;-1.37;76.63;99280.45;101945;1314;75845;-24
2021/11/23 06:06:05;;;;;;;3.60;2.10;;;;;;;-1.52;77.08;99276.80;101905;1319;73989;-23
2021/11/23 06:08:33;;;;;;;3.10;2.20;;;;;;;-1.67;77.25;99271.91;101670;1316;74346;-24
2021/11/23 06:11:00;;;;;;;2.60;1.30;;;;;;;-1.75;77.36;99271.30;101916;1320;61356;-24
2021/11/23 06:13:29;;;;;;;4.00;2.00;;;;;;;-1.17;77.29;99272.89;101953;1316;61160;-24
2021/11/23 06:15:56;;;;;;;3.40;2.30;;;;;;;-0.45;75.31;99271.35;101945;1319;75500;-24
2021/11/23 06:18:43;;;;;;;6.40;2.60;;;;;;;-0.30;74.62;99268.50;101751;1317;77414;-24
2021/11/23 06:21:10;;;;;;;2.40;1.50;;;;;;;-0.47;74.48;99269.55;101747;1319;74374;-24
2021/11/23 06:23:38;;;;;;;2.00;1.40;;;;;;;-0.72;74.76;99271.54;101779;1314;61211;-24
2021/11/23 06:26:05;;;;;;;2.30;1.70;;;;;;;-0.96;75.24;99275.34;102116;1316;61227;-23
2021/11/23 06:28:32;;;;;;;4.40;2.20;;;;;;;-1.13;75.71;99282.15;102233;1314;75505;-24
2021/11/23 06:31:00;;;;;;;4.20;2.60;;;;;;;-1.24;76.00;99282.96;102120;1314;74915;-23
2021/11/23 06:33:27;;;;;;;3.80;2.70;;;;;;;-1.30;76.15;99283.30;102118;1317;74660;-24
2021/11/23 06:35:54;;;;;;;1.50;1.20;;;;;;;-1.35;76.42;99280.58;101906;1319;61228;-23
2021/11/23 06:38:21;;;;;;;3.30;1.70;;;;;;;-0.81;76.06;99284.08;102242;1319;61157;-23
2021/11/23 06:40:48;;;;;;;5.70;2.30;;;;;;;-0.01;74.26;99286.61;102013;1314;76492;-24
2021/11/23 06:43:15;;;;;;;3.90;2.00;;;;;;;0.23;73.27;99285.14;101994;1316;74589;-24
2021/11/23 06:45:42;;;;;;;3.60;1.60;;;;;;;0.06;73.29;99280.09;101923;1319;74224;-23
2021/11/23 06:48:11;;;;;;;3.70;1.60;;;;;;;-0.15;73.57;99280.95;102270;1319;61195;-23
2021/11/23 06:50:39;;;;;;;4.00;2.10;;;;;;;-0.35;73.55;99284.17;102206;1319;61950;-24
2021/11/23 06:53:07;;;;;;;3.00;1.60;;;;;;;-0.48;74.02;99281.35;101917;1316;75659;-24
2021/11/23 06:55:35;;;;;;;2.60;1.50;;;;;;;-0.51;74.30;99281.46;101832;1321;76064;-23
2021/11/23 06:58:03;;;;;;;13.60;2.70;;;;;;;-0.49;74.58;99280.17;101940;1316;72984;-24
2021/11/23 07:00:30;;;;;;;4.10;1.90;;;;;;;-0.37;74.47;99280.83;101629;1323;61162;-24
2021/11/23 07:02:58;;;;;;;2.80;1.80;;;;;;;-0.24;74.24;99275.97;101974;1316;61132;-24
2021/11/23 07:05:26;;;;;;;3.90;2.40;;;;;;;-0.21;73.74;99273.14;101803;1319;75669;-24
2021/11/23 07:07:59;;;;;;;3.70;2.10;;;;;;;-0.15;73.73;99272.27;101992;1316;74235;-24
2021/11/23 07:10:26;;;;;;;2.50;1.80;;;;;;;-0.09;73.67;99270.67;102170;1320;74668;-24
2021/11/23 07:13:01;;;;;;;3.10;1.80;;;;;;;0.01;73.47;99267.79;101727;1317;61218;-24
2021/11/23 07:15:30;;;;;;;5.90;2.10;;;;;;;0.20;73.51;99270.37;102214;1316;61178;-25
2021/11/23 07:17:56;;;;;;;4.10;1.90;;;;;;;0.32;73.06;99275.77;102131;1316;75636;-24
2021/11/23 07:20:23;;;;;;;3.40;1.90;;;;;;;0.42;72.50;99274.55;102184;1316;75021;-24
2021/11/23 07:22:51;;;;;;;3.10;1.90;;;;;;;0.45;72.67;99273.08;101901;1320;73484;-24
2021/11/23 07:25:18;;;;;;;4.70;2.20;;;;;;;0.44;72.36;99274.66;102176;1314;61198;-24
2021/11/23 07:27:45;;;;;;;5.80;2.90;;;;;;;0.45;72.72;99274.96;102222;1316;61215;-22
2021/11/23 07:30:13;;;;;;;2.70;1.80;;;;;;;0.67;72.73;99278.42;101906;1316;75353;-24
2021/11/23 07:32:41;;;;;;;4.30;2.60;;;;;;;0.96;73.07;99276.01;101986;1319;74405;-22
2021/11/23 07:35:08;;;;;;;4.50;2.30;;;;;;;1.26;72.41;99280.64;102202;1319;74243;-23
2021/11/23 07:37:40;;;;;;;5.30;2.50;;;;;;;1.38;70.85;99280.33;101759;1317;61224;-24
2021/11/23 07:40:09;;;;;;;3.50;2.00;;;;;;;1.35;71.60;99280.98;102077;1320;61212;-22
2021/11/23 07:42:36;;;;;;;5.20;2.20;;;;;;;1.29;71.51;99286.34;101944;1316;75590;-23
2021/11/23 07:45:04;;;;;;;3.80;2.10;;;;;;;1.20;72.32;99279.50;101868;1319;75327;-24
2021/11/23 07:47:32;;;;;;;4.00;2.30;;;;;;;1.12;72.80;99280.19;101828;1317;74717;-24
2021/11/23 07:49:59;;;;;;;3.00;2.00;;;;;;;1.20;73.33;99283.11;102201;1313;63258;-25
2021/11/23 07:52:26;;;;;;;4.40;2.30;;;;;;;1.92;71.85;99277.80;101952;1317;62157;-24
2021/11/23 07:54:54;;;;;;;2.80;1.90;;;;;;;2.46;69.26;99277.40;101929;1316;74791;-24
2021/11/23 07:57:21;;;;;;;4.00;2.00;;;;;;;2.51;69.22;99275.81;102144;1313;75380;-22
2021/11/23 07:59:48;;;;;;;4.00;2.30;;;;;;;2.36;69.63;99269.09;102174;1313;74399;-24
2021/11/23 08:02:15;;;;;;;3.20;2.50;;;;;;;2.15;70.40;99274.80;101909;1316;61137;-25
2021/11/23 08:04:43;;;;;;;5.20;2.20;;;;;;;2.00;71.19;99272.73;102010;1313;61152;-22
2021/11/23 08:07:10;;;;;;;3.90;2.20;;;;;;;1.93;72.13;99277.10;102040;1314;75555;-24
2021/11/23 08:09:37;;;;;;;3.30;2.40;;;;;;;1.90;72.66;99281.14;102156;1314;76067;-22
2021/11/23 08:12:05;;;;;;;6.10;2.70;;;;;;;1.86;72.79;99284.73;102193;1319;74591;-24
2021/11/23 08:14:33;;;;;;;2.10;1.60;;;;;;;1.82;73.34;99288.67;101811;1314;61362;-24
2021/11/23 08:17:01;;;;;;;6.50;2.00;;;;;;;2.43;71.72;99285.08;102265;1314;61152;-24
2021/11/23 08:19:37;;;;;;;2.90;2.30;;;;;;;3.11;69.04;99285.11;101878;1317;75829;-22
2021/11/23 08:22:04;;;;;;;2.50;1.70;;;;;;;3.11;68.46;99281.69;101997;1317;76010;-22
2021/11/23 08:24:32;;;;;;;3.40;2.00;;;;;;;2.87;68.07;99277.08;101769;1322;74681;-22
2021/11/23 08:27:00;;;;;;;5.50;2.40;;;;;;;2.76;69.38;99281.89;102138;1314;61080;-22
2021/11/23 08:29:27;;;;;;;3.40;1.60;;;;;;;2.57;69.59;99278.48;101914;1313;61287;-22
2021/11/23 08:31:55;;;;;;;2.80;1.90;;;;;;;2.37;70.89;99280.54;102177;1314;75794;-22
2021/11/23 08:34:23;;;;;;;3.50;2.20;;;;;;;2.10;71.35;99281.34;101799;1317;76257;-22
2021/11/23 08:36:50;;;;;;;4.00;2.40;;;;;;;1.99;72.20;99285.77;102181;1313;74697;-23
2021/11/23 08:39:18;;;;;;;3.20;2.10;;;;;;;1.87;72.49;99283.66;101893;1319;61199;-22
2021/11/23 08:41:45;;;;;;;3.30;1.80;;;;;;;2.25;71.18;99282.95;102103;1313;62173;-24
2021/11/23 08:44:12;;;;;;;4.50;2.30;;;;;;;2.65;69.67;99284.95;101982;1316;75671;-25
2021/11/23 08:46:39;;;;;;;3.30;2.60;;;;;;;2.64;69.61;99286.88;102134;1314;76515;-25
2021/11/23 08:49:06;;;;;;;3.20;2.00;;;;;;;2.48;70.37;99289.81;101801;1317;74656;-25
2021/11/23 08:51:36;;;;;;;3.80;2.80;;;;;;;2.22;71.36;99286.84;101985;1319;61183;-25
2021/11/23 08:54:04;;;;;;;3.40;1.80;;;;;;;1.80;73.01;99283.63;101815;1313;62370;-25
2021/11/23 08:56:36;;;;;;;3.90;2.10;;;;;;;1.50;74.45;99279.53;101741;1317;74566;-22
2021/11/23 08:59:09;;;;;;;3.50;1.60;;;;;;;1.13;76.50;99276.73;101829;1322;74460;-24
2021/11/23 09:01:37;;;;;;;;;;;;;;;1.12;77.23;99278.47;101734;1319;74561;-24
2021/11/23 09:04:08;;;;;;;4.50;2.20;;;;;;;1.67;76.05;99280.54;101684;1320;61197;-24
2021/11/23 09:06:39;;;;;;;6.50;2.00;;;;;;;1.84;75.75;99277.13;101972;1319;61145;-24
2021/11/23 09:09:08;;;;;;;4.40;2.00;;;;;;;1.82;75.49;99272.45;101642;1317;75484;-23
2021/11/23 09:11:38;;;;;;;2.80;1.80;;;;;;;1.64;76.30;99268.05;101769;1321;76016;-24
2021/11/23 09:14:07;;;;;;;4.80;2.40;;;;;;;1.43;77.01;99265.26;101777;1317;72885;-23
2021/11/23 09:16:36;;;;;;;4.00;2.00;;;;;;;1.26;77.63;99268.70;101992;1320;61234;-23
2021/11/23 09:19:04;;;;;;;2.60;1.50;;;;;;;1.14;78.40;99265.05;101823;1321;61094;-24
2021/11/23 09:21:32;;;;;;;2.70;1.70;;;;;;;1.58;77.61;99262.77;102176;1314;75564;-24
2021/11/23 09:24:00;;;;;;;4.60;2.20;;;;;;;2.23;75.80;99256.65;102122;1314;73199;-24
2021/11/23 09:26:27;;;;;;;4.10;2.40;;;;;;;2.39;74.83;99258.19;102176;1316;74406;-24
2021/11/23 09:28:55;;;;;;;5.00;2.30;;;;;;;2.30;74.70;99254.95;101882;1317;61218;-24
2021/11/23 09:31:23;;;;;;;3.70;2.70;;;;;;;2.13;76.00;99244.75;101776;1322;61267;-24
2021/11/23 09:33:51;;;;;;;4.50;2.50;;;;;;;1.98;75.86;99245.56;101864;1317;75623;-24
2021/11/23 09:36:18;;;;;;;7.50;3.30;;;;;;;1.84;76.49;99243.24;101876;1317;76195;-24
2021/11/23 09:38:45;;;;;;;3.10;1.90;;;;;;;1.71;77.01;99242.08;101941;1316;74294;-24
2021/11/23 09:41:12;;;;;;;4.90;2.80;;;;;;;2.07;75.96;99236.09;102205;1316;61204;-24
2021/11/23 09:43:39;;;;;;;5.00;3.20;;;;;;;2.48;73.77;99232.24;101854;1317;61207;-24
2021/11/23 09:46:08;;;;;;;6.30;3.10;;;;;;;2.48;73.54;99237.04;102199;1313;75629;-23
2021/11/23 09:48:40;;;;;;;5.60;2.70;;;;;;;2.22;73.64;99230.13;101819;1317;75211;-23
2021/11/23 09:51:19;;;;;;;4.30;2.70;;;;;;;1.98;74.48;99228.24;101838;1317;73572;-24
2021/11/23 09:53:45;;;;;;;7.70;3.90;;;;;;;1.84;74.92;99221.68;101762;1319;61199;-24
2021/11/23 09:56:13;;;;;;;6.10;2.80;;;;;;;1.46;76.37;99218.25;101868;1313;61107;-23
2021/11/23 09:58:40;;;;;;;4.00;2.20;;;;;;;1.40;76.77;99212.16;102161;1319;75314;-24
2021/11/23 10:01:12;;;;;;;4.10;2.30;;;;;;;1.99;75.10;99216.73;101808;1319;75986;-24
2021/11/23 10:03:40;;;;;;;5.50;3.70;;;;;;;2.33;74.11;99217.15;102073;1316;74373;-23
2021/11/23 10:06:12;;;;;;;7.30;3.50;;;;;;;2.22;73.61;99210.08;102181;1314;61930;-23
2021/11/23 10:08:42;;;;;;;5.20;3.90;;;;;;;2.05;73.96;99203.14;101780;1316;61323;-24
2021/11/23 10:11:10;;;;;;;6.50;3.40;;;;;;;1.87;75.43;99203.03;102066;1317;76063;-24
2021/11/23 10:13:39;;;;;;;7.70;4.80;;;;;;;1.81;75.72;99197.48;101861;1318;76087;-23
2021/11/23 10:16:06;;;;;;;4.10;2.70;;;;;;;1.64;75.64;99181.45;101817;1316;74391;-23
2021/11/23 10:18:50;;;;;;;4.20;2.50;;;;;;;2.09;74.74;99181.38;102165;1314;61214;-24
2021/11/23 10:21:20;;;;;;;4.80;3.00;;;;;;;2.38;73.02;99176.15;101828;1319;61233;-24
2021/11/23 10:23:49;;;;;;;7.70;4.10;;;;;;;2.39;73.20;99174.38;101796;1317;75603;-24
2021/11/23 10:26:19;;;;;;;4.80;3.30;;;;;;;2.18;73.73;99174.64;101798;1317;76166;-24
2021/11/23 10:28:51;;;;;;;5.30;3.60;;;;;;;2.06;73.95;99174.68;101799;1316;73439;-24
2021/11/23 10:31:18;;;;;;;7.10;4.30;;;;;;;1.95;74.54;99169.51;101860;1316;61212;-24
2021/11/23 10:34:04;;;;;;;7.00;3.80;;;;;;;1.91;75.34;99166.41;102034;1316;61493;-24
2021/11/23 10:36:36;;;;;;;4.10;2.70;;;;;;;2.44;74.12;99165.08;101767;1320;74608;-23
2021/11/23 10:39:07;;;;;;;5.90;3.00;;;;;;;2.85;71.52;99159.23;101703;1317;75147;-23
2021/11/23 10:41:40;;;;;;;6.90;3.60;;;;;;;2.91;71.10;99157.23;101600;1316;72856;-24
2021/11/23 10:44:37;;;;;;;5.20;3.00;;;;;;;2.76;72.04;99152.30;101716;1317;61314;-24
2021/11/23 10:47:08;;;;;;;5.40;3.30;;;;;;;2.68;72.03;99151.09;101775;1314;62187;-22
2021/11/23 10:49:43;;;;;;;7.10;3.80;;;;;;;2.58;72.15;99144.71;102206;1317;74261;-24
2021/11/23 10:52:27;;;;;;;5.60;2.90;;;;;;;2.25;71.93;99133.05;101806;1317;76165;-24
2021/11/23 10:54:55;;;;;;;5.50;3.60;;;;;;;1.96;73.01;99137.92;102022;1316;74414;-23
2021/11/23 10:57:23;;;;;;;10.10;4.20;;;;;;;2.27;71.93;99131.77;101701;1319;61168;-23
2021/11/23 10:59:50;;;;;;;5.10;3.40;;;;;;;2.76;69.83;99129.30;101917;1315;61323;-23
2021/11/23 11:02:17;;;;;;;5.70;3.60;;;;;;;2.83;69.38;99120.39;102005;1316;74449;-23
2021/11/23 11:04:49;;;;;;;7.90;4.20;;;;;;;2.74;69.26;99113.78;101683;1316;75917;-23
2021/11/23 11:07:19;;;;;;;6.40;4.40;;;;;;;2.58;70.28;99117.31;101766;1317;74349;-23
2021/11/23 11:09:46;;;;;;;5.30;3.60;;;;;;;2.51;71.09;99112.48;101544;1322;61192;-23
2021/11/23 11:12:14;;;;;;;4.70;3.50;;;;;;;2.36;70.63;99107.88;101608;1320;62139;-23
2021/11/23 11:14:41;;;;;;;6.40;4.00;;;;;;;2.27;70.47;99113.94;101564;1316;75504;-23
2021/11/23 11:17:28;;;;;;;4.80;2.80;;;;;;;2.08;70.78;99116.67;101534;1321;76309;-23
2021/11/23 11:19:56;;;;;;;3.30;2.30;;;;;;;2.28;69.80;99120.39;101649;1321;74720;-23
2021/11/23 11:22:25;;;;;;;8.00;4.30;;;;;;;2.79;67.87;99124.55;101762;1315;61202;-23
2021/11/23 11:25:15;;;;;;;10.10;4.60;;;;;;;2.99;67.62;99134.21;101767;1317;61932;-24
2021/11/23 11:27:45;;;;;;;7.50;4.10;;;;;;;2.87;68.09;99138.06;101979;1314;74689;-24
2021/11/23 11:30:35;;;;;;;9.00;4.50;;;;;;;2.74;68.65;99136.92;101710;1313;76220;-23
2021/11/23 11:33:08;;;;;;;7.70;3.80;;;;;;;2.51;70.12;99133.05;101897;1316;74529;-23
2021/11/23 11:35:39;;;;;;;;;;;;;;;2.34;70.45;99130.56;102223;1316;61135;-23